sensor_id;sensor_type;location;lat;lon;timestamp;P1;durP1;ratioP1;P2;durP2;ratioP2
11098;SDS011;12223;42.650;23.364;2023-01-16T00:01:48;42.30;;;28.50;;
11098;SDS011;12223;42.650;23.364;2023-01-16T00:04:20;40.63;;;26.13;;
11098;SDS011;12223;42.650;23.364;2023-01-16T00:09:18;37.57;;;27.13;;
11098;SDS011;12223;42.650;23.364;2023-01-16T00:11:45;39.67;;;26.17;;
11098;SDS011;12223;42.650;23.364;2023-01-16T00:14:12;36.80;;;23.50;;
11098;SDS011;12223;42.650;23.364;2023-01-16T00:16:39;51.33;;;43.67;;
11098;SDS011;12223;42.650;23.364;2023-01-16T00:19:06;44.47;;;29.63;;
11098;SDS011;12223;42.650;23.364;2023-01-16T00:21:34;47.30;;;29.23;;
11098;SDS011;12223;42.650;23.364;2023-01-16T00:24:01;47.33;;;32.67;;
11098;SDS011;12223;42.650;23.364;2023-01-16T00:26:28;58.23;;;35.50;;
11098;SDS011;12223;42.650;23.364;2023-01-16T00:28:56;48.43;;;28.83;;
11098;SDS011;12223;42.650;23.364;2023-01-16T00:31:23;36.80;;;25.47;;
11098;SDS011;12223;42.650;23.364;2023-01-16T00:33:51;36.70;;;24.70;;
11098;SDS011;12223;42.650;23.364;2023-01-16T00:36:18;35.50;;;26.23;;
11098;SDS011;12223;42.650;23.364;2023-01-16T00:38:47;38.10;;;25.57;;
11098;SDS011;12223;42.650;23.364;2023-01-16T00:41:14;37.10;;;25.13;;
11098;SDS011;12223;42.650;23.364;2023-01-16T00:43:41;37.50;;;27.10;;
11098;SDS011;12223;42.650;23.364;2023-01-16T00:46:08;48.37;;;29.47;;
11098;SDS011;12223;42.650;23.364;2023-01-16T00:48:34;42.50;;;26.10;;
11098;SDS011;12223;42.650;23.364;2023-01-16T00:51:01;43.77;;;26.37;;
11098;SDS011;12223;42.650;23.364;2023-01-16T00:53:28;41.60;;;26.30;;
11098;SDS011;12223;42.650;23.364;2023-01-16T00:55:56;45.93;;;29.27;;
11098;SDS011;12223;42.650;23.364;2023-01-16T00:58:23;42.57;;;30.47;;
11098;SDS011;12223;42.650;23.364;2023-01-16T01:00:50;45.23;;;34.83;;
11098;SDS011;12223;42.650;23.364;2023-01-16T01:03:17;40.07;;;27.10;;
11098;SDS011;12223;42.650;23.364;2023-01-16T01:05:44;37.93;;;25.50;;
11098;SDS011;12223;42.650;23.364;2023-01-16T01:08:11;43.70;;;28.77;;
11098;SDS011;12223;42.650;23.364;2023-01-16T01:13:58;39.67;;;26.70;;
11098;SDS011;12223;42.650;23.364;2023-01-16T01:16:25;39.00;;;30.93;;
11098;SDS011;12223;42.650;23.364;2023-01-16T01:18:52;38.83;;;26.20;;
11098;SDS011;12223;42.650;23.364;2023-01-16T01:21:19;39.20;;;28.73;;
11098;SDS011;12223;42.650;23.364;2023-01-16T01:23:46;39.40;;;35.33;;
11098;SDS011;12223;42.650;23.364;2023-01-16T01:26:13;36.80;;;23.83;;
11098;SDS011;12223;42.650;23.364;2023-01-16T01:28:41;29.27;;;20.37;;
11098;SDS011;12223;42.650;23.364;2023-01-16T01:31:10;30.50;;;24.20;;
11098;SDS011;12223;42.650;23.364;2023-01-16T01:33:45;33.53;;;24.57;;
11098;SDS011;12223;42.650;23.364;2023-01-16T01:36:14;34.77;;;25.97;;
11098;SDS011;12223;42.650;23.364;2023-01-16T01:38:41;36.23;;;31.47;;
11098;SDS011;12223;42.650;23.364;2023-01-16T01:41:08;31.87;;;28.77;;
11098;SDS011;12223;42.650;23.364;2023-01-16T01:43:39;36.10;;;27.83;;
11098;SDS011;12223;42.650;23.364;2023-01-16T01:46:15;34.97;;;27.20;;
11098;SDS011;12223;42.650;23.364;2023-01-16T01:48:56;29.50;;;22.13;;
11098;SDS011;12223;42.650;23.364;2023-01-16T01:51:26;32.90;;;22.73;;
11098;SDS011;12223;42.650;23.364;2023-01-16T01:53:59;32.53;;;24.07;;
11098;SDS011;12223;42.650;23.364;2023-01-16T01:56:31;32.97;;;23.63;;
11098;SDS011;12223;42.650;23.364;2023-01-16T01:59:02;32.57;;;23.87;;
11098;SDS011;12223;42.650;23.364;2023-01-16T02:01:36;27.10;;;21.40;;
11098;SDS011;12223;42.650;23.364;2023-01-16T02:04:05;30.30;;;21.77;;
11098;SDS011;12223;42.650;23.364;2023-01-16T02:06:37;25.20;;;20.13;;
11098;SDS011;12223;42.650;23.364;2023-01-16T02:09:09;27.07;;;21.63;;
11098;SDS011;12223;42.650;23.364;2023-01-16T02:11:37;27.40;;;21.43;;
11098;SDS011;12223;42.650;23.364;2023-01-16T02:14:08;30.30;;;20.97;;
11098;SDS011;12223;42.650;23.364;2023-01-16T02:16:38;33.53;;;23.70;;
11098;SDS011;12223;42.650;23.364;2023-01-16T02:19:26;40.33;;;27.87;;
11098;SDS011;12223;42.650;23.364;2023-01-16T02:22:08;35.20;;;23.40;;
11098;SDS011;12223;42.650;23.364;2023-01-16T02:25:02;30.23;;;23.40;;
11098;SDS011;12223;42.650;23.364;2023-01-16T02:28:00;37.37;;;28.50;;
11098;SDS011;12223;42.650;23.364;2023-01-16T02:31:05;32.60;;;24.60;;
11098;SDS011;12223;42.650;23.364;2023-01-16T02:33:54;31.67;;;24.83;;
11098;SDS011;12223;42.650;23.364;2023-01-16T02:36:33;35.37;;;27.83;;
11098;SDS011;12223;42.650;23.364;2023-01-16T02:39:11;30.67;;;22.97;;
11098;SDS011;12223;42.650;23.364;2023-01-16T02:41:47;30.87;;;20.83;;
11098;SDS011;12223;42.650;23.364;2023-01-16T02:44:19;33.23;;;22.50;;
11098;SDS011;12223;42.650;23.364;2023-01-16T02:46:58;37.53;;;25.60;;
11098;SDS011;12223;42.650;23.364;2023-01-16T02:49:34;38.37;;;28.17;;
11098;SDS011;12223;42.650;23.364;2023-01-16T02:52:08;46.57;;;28.33;;
11098;SDS011;12223;42.650;23.364;2023-01-16T02:54:44;49.80;;;31.97;;
11098;SDS011;12223;42.650;23.364;2023-01-16T02:57:17;47.67;;;30.13;;
11098;SDS011;12223;42.650;23.364;2023-01-16T02:59:48;36.50;;;26.27;;
11098;SDS011;12223;42.650;23.364;2023-01-16T03:02:21;30.00;;;22.07;;
11098;SDS011;12223;42.650;23.364;2023-01-16T03:04:48;28.63;;;22.23;;
11098;SDS011;12223;42.650;23.364;2023-01-16T03:07:22;29.30;;;23.20;;
11098;SDS011;12223;42.650;23.364;2023-01-16T03:10:11;34.83;;;27.33;;
11098;SDS011;12223;42.650;23.364;2023-01-16T03:13:05;34.60;;;27.47;;
11098;SDS011;12223;42.650;23.364;2023-01-16T03:15:44;28.80;;;25.37;;
11098;SDS011;12223;42.650;23.364;2023-01-16T03:18:23;35.13;;;26.87;;
11098;SDS011;12223;42.650;23.364;2023-01-16T03:21:00;33.20;;;24.47;;
11098;SDS011;12223;42.650;23.364;2023-01-16T03:23:32;29.83;;;25.00;;
11098;SDS011;12223;42.650;23.364;2023-01-16T03:26:06;30.37;;;23.47;;
11098;SDS011;12223;42.650;23.364;2023-01-16T03:28:42;29.03;;;19.67;;
11098;SDS011;12223;42.650;23.364;2023-01-16T03:31:19;29.57;;;21.03;;
11098;SDS011;12223;42.650;23.364;2023-01-16T03:33:54;40.07;;;36.03;;
11098;SDS011;12223;42.650;23.364;2023-01-16T03:36:35;48.77;;;32.33;;
11098;SDS011;12223;42.650;23.364;2023-01-16T03:39:07;42.93;;;36.53;;
11098;SDS011;12223;42.650;23.364;2023-01-16T03:44:12;32.37;;;25.03;;
11098;SDS011;12223;42.650;23.364;2023-01-16T03:46:50;25.80;;;19.67;;
11098;SDS011;12223;42.650;23.364;2023-01-16T03:49:19;29.00;;;21.13;;
11098;SDS011;12223;42.650;23.364;2023-01-16T03:51:49;26.13;;;20.10;;
11098;SDS011;12223;42.650;23.364;2023-01-16T03:54:26;27.20;;;20.67;;
11098;SDS011;12223;42.650;23.364;2023-01-16T03:57:03;28.80;;;19.93;;
11098;SDS011;12223;42.650;23.364;2023-01-16T03:59:35;29.77;;;22.87;;
11098;SDS011;12223;42.650;23.364;2023-01-16T04:02:04;26.40;;;19.93;;
11098;SDS011;12223;42.650;23.364;2023-01-16T04:04:40;26.37;;;19.90;;
11098;SDS011;12223;42.650;23.364;2023-01-16T04:07:12;24.33;;;20.10;;
11098;SDS011;12223;42.650;23.364;2023-01-16T04:09:47;28.30;;;21.30;;
11098;SDS011;12223;42.650;23.364;2023-01-16T04:12:17;31.70;;;22.10;;
11098;SDS011;12223;42.650;23.364;2023-01-16T04:14:51;25.20;;;18.27;;
11098;SDS011;12223;42.650;23.364;2023-01-16T04:17:22;33.30;;;21.63;;
11098;SDS011;12223;42.650;23.364;2023-01-16T04:19:52;35.23;;;21.20;;
11098;SDS011;12223;42.650;23.364;2023-01-16T04:22:20;31.43;;;22.17;;
11098;SDS011;12223;42.650;23.364;2023-01-16T04:24:48;33.50;;;18.77;;
11098;SDS011;12223;42.650;23.364;2023-01-16T04:27:16;32.73;;;24.90;;
11098;SDS011;12223;42.650;23.364;2023-01-16T04:29:43;34.77;;;22.90;;
11098;SDS011;12223;42.650;23.364;2023-01-16T04:32:10;37.90;;;23.10;;
11098;SDS011;12223;42.650;23.364;2023-01-16T04:34:37;42.40;;;31.47;;
11098;SDS011;12223;42.650;23.364;2023-01-16T04:37:06;52.07;;;23.83;;
11098;SDS011;12223;42.650;23.364;2023-01-16T04:39:33;54.90;;;41.23;;
11098;SDS011;12223;42.650;23.364;2023-01-16T04:42:00;53.07;;;34.97;;
11098;SDS011;12223;42.650;23.364;2023-01-16T04:44:26;48.87;;;31.00;;
11098;SDS011;12223;42.650;23.364;2023-01-16T04:46:53;42.50;;;27.13;;
11098;SDS011;12223;42.650;23.364;2023-01-16T04:49:21;47.80;;;32.83;;
11098;SDS011;12223;42.650;23.364;2023-01-16T04:51:48;49.33;;;30.20;;
11098;SDS011;12223;42.650;23.364;2023-01-16T04:54:17;50.93;;;26.30;;
11098;SDS011;12223;42.650;23.364;2023-01-16T04:56:45;52.53;;;28.33;;
11098;SDS011;12223;42.650;23.364;2023-01-16T04:59:12;64.67;;;27.47;;
11098;SDS011;12223;42.650;23.364;2023-01-16T05:01:40;81.03;;;27.40;;
11098;SDS011;12223;42.650;23.364;2023-01-16T05:04:08;76.60;;;27.30;;
11098;SDS011;12223;42.650;23.364;2023-01-16T05:06:37;67.53;;;24.80;;
11098;SDS011;12223;42.650;23.364;2023-01-16T05:09:05;51.67;;;30.73;;
11098;SDS011;12223;42.650;23.364;2023-01-16T05:11:34;72.20;;;28.33;;
11098;SDS011;12223;42.650;23.364;2023-01-16T05:14:02;73.43;;;33.97;;
11098;SDS011;12223;42.650;23.364;2023-01-16T05:16:32;58.17;;;41.70;;
11098;SDS011;12223;42.650;23.364;2023-01-16T05:18:59;84.17;;;34.50;;
11098;SDS011;12223;42.650;23.364;2023-01-16T05:21:25;81.00;;;35.70;;
11098;SDS011;12223;42.650;23.364;2023-01-16T05:23:52;56.83;;;29.87;;
11098;SDS011;12223;42.650;23.364;2023-01-16T05:26:19;46.07;;;28.37;;
11098;SDS011;12223;42.650;23.364;2023-01-16T05:28:47;46.60;;;25.93;;
11098;SDS011;12223;42.650;23.364;2023-01-16T05:31:14;44.10;;;23.97;;
11098;SDS011;12223;42.650;23.364;2023-01-16T05:33:41;53.93;;;48.57;;
11098;SDS011;12223;42.650;23.364;2023-01-16T05:36:07;55.07;;;47.83;;
11098;SDS011;12223;42.650;23.364;2023-01-16T05:38:34;75.70;;;68.67;;
11098;SDS011;12223;42.650;23.364;2023-01-16T05:41:01;55.03;;;43.57;;
11098;SDS011;12223;42.650;23.364;2023-01-16T05:43:28;42.90;;;33.47;;
11098;SDS011;12223;42.650;23.364;2023-01-16T05:45:56;43.93;;;30.73;;
11098;SDS011;12223;42.650;23.364;2023-01-16T05:48:23;56.23;;;43.03;;
11098;SDS011;12223;42.650;23.364;2023-01-16T05:53:29;52.33;;;46.37;;
11098;SDS011;12223;42.650;23.364;2023-01-16T05:55:57;60.20;;;46.83;;
11098;SDS011;12223;42.650;23.364;2023-01-16T05:58:26;58.37;;;45.17;;
11098;SDS011;12223;42.650;23.364;2023-01-16T06:00:53;60.17;;;36.80;;
11098;SDS011;12223;42.650;23.364;2023-01-16T06:03:21;59.83;;;42.83;;
11098;SDS011;12223;42.650;23.364;2023-01-16T06:05:48;59.23;;;39.10;;
11098;SDS011;12223;42.650;23.364;2023-01-16T06:13:36;68.50;;;61.87;;
11098;SDS011;12223;42.650;23.364;2023-01-16T06:16:03;51.93;;;38.60;;
11098;SDS011;12223;42.650;23.364;2023-01-16T06:18:32;53.37;;;47.33;;
11098;SDS011;12223;42.650;23.364;2023-01-16T06:20:59;59.53;;;52.37;;
11098;SDS011;12223;42.650;23.364;2023-01-16T06:23:26;47.07;;;39.03;;
11098;SDS011;12223;42.650;23.364;2023-01-16T06:25:55;49.63;;;32.23;;
11098;SDS011;12223;42.650;23.364;2023-01-16T06:28:22;50.67;;;42.90;;
11098;SDS011;12223;42.650;23.364;2023-01-16T06:30:50;55.93;;;41.93;;
11098;SDS011;12223;42.650;23.364;2023-01-16T06:33:18;68.77;;;49.53;;
11098;SDS011;12223;42.650;23.364;2023-01-16T06:35:46;66.87;;;41.27;;
11098;SDS011;12223;42.650;23.364;2023-01-16T06:38:16;63.13;;;43.23;;
11098;SDS011;12223;42.650;23.364;2023-01-16T06:40:43;65.70;;;47.80;;
11098;SDS011;12223;42.650;23.364;2023-01-16T06:43:11;80.67;;;43.23;;
11098;SDS011;12223;42.650;23.364;2023-01-16T06:45:38;76.47;;;68.03;;
11098;SDS011;12223;42.650;23.364;2023-01-16T06:48:05;233.57;;;218.17;;
11098;SDS011;12223;42.650;23.364;2023-01-16T06:50:31;307.53;;;287.07;;
11098;SDS011;12223;42.650;23.364;2023-01-16T06:53:02;153.43;;;139.57;;
11098;SDS011;12223;42.650;23.364;2023-01-16T06:55:29;190.23;;;176.23;;
11098;SDS011;12223;42.650;23.364;2023-01-16T06:57:57;164.60;;;152.27;;
11098;SDS011;12223;42.650;23.364;2023-01-16T07:00:24;132.17;;;120.13;;
11098;SDS011;12223;42.650;23.364;2023-01-16T07:02:51;176.17;;;164.50;;
11098;SDS011;12223;42.650;23.364;2023-01-16T07:05:19;186.10;;;172.40;;
11098;SDS011;12223;42.650;23.364;2023-01-16T07:07:47;109.07;;;99.60;;
11098;SDS011;12223;42.650;23.364;2023-01-16T07:10:16;77.27;;;68.87;;
11098;SDS011;12223;42.650;23.364;2023-01-16T07:12:45;102.87;;;93.13;;
11098;SDS011;12223;42.650;23.364;2023-01-16T07:15:12;118.40;;;107.50;;
11098;SDS011;12223;42.650;23.364;2023-01-16T07:17:57;71.73;;;56.87;;
11098;SDS011;12223;42.650;23.364;2023-01-16T07:20:42;62.83;;;32.33;;
11098;SDS011;12223;42.650;23.364;2023-01-16T07:23:35;52.13;;;33.17;;
11098;SDS011;12223;42.650;23.364;2023-01-16T07:26:07;58.00;;;31.53;;
11098;SDS011;12223;42.650;23.364;2023-01-16T07:28:37;60.00;;;31.03;;
11098;SDS011;12223;42.650;23.364;2023-01-16T07:31:06;67.70;;;41.27;;
11098;SDS011;12223;42.650;23.364;2023-01-16T07:33:34;46.30;;;32.97;;
11098;SDS011;12223;42.650;23.364;2023-01-16T07:36:01;72.27;;;65.27;;
11098;SDS011;12223;42.650;23.364;2023-01-16T07:38:27;47.63;;;30.93;;
11098;SDS011;12223;42.650;23.364;2023-01-16T07:40:54;49.17;;;28.10;;
11098;SDS011;12223;42.650;23.364;2023-01-16T07:43:24;48.67;;;31.10;;
11098;SDS011;12223;42.650;23.364;2023-01-16T07:45:51;44.97;;;26.40;;
11098;SDS011;12223;42.650;23.364;2023-01-16T07:48:18;43.47;;;34.70;;
11098;SDS011;12223;42.650;23.364;2023-01-16T07:50:49;47.67;;;28.63;;
11098;SDS011;12223;42.650;23.364;2023-01-16T07:53:20;53.03;;;27.93;;
11098;SDS011;12223;42.650;23.364;2023-01-16T07:55:48;49.67;;;28.23;;
11098;SDS011;12223;42.650;23.364;2023-01-16T07:58:15;60.27;;;34.93;;
11098;SDS011;12223;42.650;23.364;2023-01-16T08:00:44;151.67;;;60.43;;
11098;SDS011;12223;42.650;23.364;2023-01-16T08:03:11;168.90;;;78.83;;
11098;SDS011;12223;42.650;23.364;2023-01-16T08:05:38;89.67;;;46.87;;
11098;SDS011;12223;42.650;23.364;2023-01-16T08:08:05;77.73;;;44.93;;
11098;SDS011;12223;42.650;23.364;2023-01-16T08:10:33;107.30;;;58.70;;
11098;SDS011;12223;42.650;23.364;2023-01-16T08:13:00;106.80;;;86.43;;
11098;SDS011;12223;42.650;23.364;2023-01-16T08:15:26;64.30;;;49.17;;
11098;SDS011;12223;42.650;23.364;2023-01-16T08:17:55;58.03;;;35.90;;
11098;SDS011;12223;42.650;23.364;2023-01-16T08:20:22;63.20;;;39.90;;
11098;SDS011;12223;42.650;23.364;2023-01-16T08:22:50;60.03;;;39.00;;
11098;SDS011;12223;42.650;23.364;2023-01-16T08:25:19;72.13;;;42.73;;
11098;SDS011;12223;42.650;23.364;2023-01-16T08:27:47;72.43;;;40.77;;
11098;SDS011;12223;42.650;23.364;2023-01-16T08:30:14;69.33;;;39.33;;
11098;SDS011;12223;42.650;23.364;2023-01-16T08:32:42;55.30;;;32.67;;
11098;SDS011;12223;42.650;23.364;2023-01-16T08:35:12;57.47;;;33.17;;
11098;SDS011;12223;42.650;23.364;2023-01-16T08:37:39;48.97;;;31.70;;
11098;SDS011;12223;42.650;23.364;2023-01-16T08:40:14;59.17;;;34.73;;
11098;SDS011;12223;42.650;23.364;2023-01-16T08:42:41;54.87;;;32.73;;
11098;SDS011;12223;42.650;23.364;2023-01-16T08:45:25;52.30;;;30.27;;
11098;SDS011;12223;42.650;23.364;2023-01-16T08:48:11;52.87;;;30.40;;
11098;SDS011;12223;42.650;23.364;2023-01-16T08:51:04;50.27;;;31.30;;
11098;SDS011;12223;42.650;23.364;2023-01-16T08:53:50;60.87;;;36.13;;
11098;SDS011;12223;42.650;23.364;2023-01-16T08:56:18;57.33;;;37.30;;
11098;SDS011;12223;42.650;23.364;2023-01-16T08:58:46;53.13;;;33.20;;
11098;SDS011;12223;42.650;23.364;2023-01-16T09:01:12;53.00;;;32.60;;
11098;SDS011;12223;42.650;23.364;2023-01-16T09:03:40;49.90;;;31.17;;
11098;SDS011;12223;42.650;23.364;2023-01-16T09:06:08;49.17;;;30.10;;
11098;SDS011;12223;42.650;23.364;2023-01-16T09:08:35;50.57;;;31.27;;
11098;SDS011;12223;42.650;23.364;2023-01-16T09:11:03;52.77;;;34.73;;
11098;SDS011;12223;42.650;23.364;2023-01-16T09:13:47;51.53;;;33.47;;
11098;SDS011;12223;42.650;23.364;2023-01-16T09:16:14;54.37;;;35.73;;
11098;SDS011;12223;42.650;23.364;2023-01-16T09:18:42;52.60;;;35.57;;
11098;SDS011;12223;42.650;23.364;2023-01-16T09:21:11;57.13;;;37.17;;
11098;SDS011;12223;42.650;23.364;2023-01-16T09:23:38;46.73;;;35.43;;
11098;SDS011;12223;42.650;23.364;2023-01-16T09:26:04;50.83;;;33.00;;
11098;SDS011;12223;42.650;23.364;2023-01-16T09:28:32;46.10;;;30.47;;
11098;SDS011;12223;42.650;23.364;2023-01-16T09:30:59;46.23;;;30.70;;
11098;SDS011;12223;42.650;23.364;2023-01-16T09:33:25;59.07;;;38.03;;
11098;SDS011;12223;42.650;23.364;2023-01-16T09:35:52;75.27;;;46.70;;
11098;SDS011;12223;42.650;23.364;2023-01-16T09:38:21;57.73;;;39.67;;
11098;SDS011;12223;42.650;23.364;2023-01-16T09:40:48;58.27;;;34.37;;
11098;SDS011;12223;42.650;23.364;2023-01-16T09:46:06;62.90;;;39.03;;
11098;SDS011;12223;42.650;23.364;2023-01-16T09:48:38;59.90;;;39.97;;
11098;SDS011;12223;42.650;23.364;2023-01-16T09:51:13;57.40;;;43.97;;
11098;SDS011;12223;42.650;23.364;2023-01-16T09:53:44;59.73;;;41.90;;
11098;SDS011;12223;42.650;23.364;2023-01-16T09:56:36;48.43;;;33.33;;
11098;SDS011;12223;42.650;23.364;2023-01-16T09:59:24;46.37;;;29.87;;
11098;SDS011;12223;42.650;23.364;2023-01-16T10:01:58;50.10;;;29.10;;
11098;SDS011;12223;42.650;23.364;2023-01-16T10:04:31;40.90;;;29.53;;
11098;SDS011;12223;42.650;23.364;2023-01-16T10:07:06;41.13;;;28.07;;
11098;SDS011;12223;42.650;23.364;2023-01-16T10:09:52;50.23;;;34.37;;
11098;SDS011;12223;42.650;23.364;2023-01-16T10:12:27;39.87;;;29.53;;
11098;SDS011;12223;42.650;23.364;2023-01-16T10:15:01;48.03;;;32.50;;
11098;SDS011;12223;42.650;23.364;2023-01-16T10:17:42;43.00;;;26.43;;
11098;SDS011;12223;42.650;23.364;2023-01-16T10:20:30;39.00;;;26.13;;
11098;SDS011;12223;42.650;23.364;2023-01-16T10:23:11;41.77;;;37.17;;
11098;SDS011;12223;42.650;23.364;2023-01-16T10:25:50;40.23;;;31.97;;
11098;SDS011;12223;42.650;23.364;2023-01-16T10:28:28;43.67;;;27.63;;
11098;SDS011;12223;42.650;23.364;2023-01-16T10:31:05;42.37;;;26.73;;
11098;SDS011;12223;42.650;23.364;2023-01-16T10:33:50;48.37;;;27.73;;
11098;SDS011;12223;42.650;23.364;2023-01-16T10:36:31;47.63;;;26.00;;
11098;SDS011;12223;42.650;23.364;2023-01-16T10:39:02;39.53;;;24.07;;
11098;SDS011;12223;42.650;23.364;2023-01-16T10:41:33;41.67;;;26.73;;
11098;SDS011;12223;42.650;23.364;2023-01-16T10:44:27;45.53;;;30.77;;
11098;SDS011;12223;42.650;23.364;2023-01-16T10:47:15;43.27;;;29.20;;
11098;SDS011;12223;42.650;23.364;2023-01-16T10:50:05;44.73;;;29.97;;
11098;SDS011;12223;42.650;23.364;2023-01-16T10:52:32;41.83;;;29.67;;
11098;SDS011;12223;42.650;23.364;2023-01-16T10:55:00;38.37;;;26.70;;
11098;SDS011;12223;42.650;23.364;2023-01-16T10:57:30;41.37;;;25.67;;
11098;SDS011;12223;42.650;23.364;2023-01-16T10:59:57;41.07;;;36.80;;
11098;SDS011;12223;42.650;23.364;2023-01-16T11:02:29;32.87;;;28.60;;
11098;SDS011;12223;42.650;23.364;2023-01-16T11:04:59;39.60;;;35.57;;
11098;SDS011;12223;42.650;23.364;2023-01-16T11:07:28;37.63;;;33.97;;
11098;SDS011;12223;42.650;23.364;2023-01-16T11:09:56;32.77;;;25.57;;
11098;SDS011;12223;42.650;23.364;2023-01-16T11:12:25;29.50;;;22.07;;
11098;SDS011;12223;42.650;23.364;2023-01-16T11:15:15;35.63;;;27.77;;
11098;SDS011;12223;42.650;23.364;2023-01-16T11:20:55;40.17;;;25.30;;
11098;SDS011;12223;42.650;23.364;2023-01-16T11:23:23;39.27;;;25.30;;
11098;SDS011;12223;42.650;23.364;2023-01-16T11:25:53;39.33;;;25.40;;
11098;SDS011;12223;42.650;23.364;2023-01-16T11:28:24;39.27;;;26.97;;
11098;SDS011;12223;42.650;23.364;2023-01-16T11:30:54;43.40;;;28.07;;
11098;SDS011;12223;42.650;23.364;2023-01-16T11:33:26;34.17;;;26.13;;
11098;SDS011;12223;42.650;23.364;2023-01-16T11:36:00;41.20;;;25.83;;
11098;SDS011;12223;42.650;23.364;2023-01-16T11:38:29;36.23;;;28.23;;
11098;SDS011;12223;42.650;23.364;2023-01-16T11:41:00;31.10;;;25.80;;
11098;SDS011;12223;42.650;23.364;2023-01-16T11:43:30;37.30;;;25.43;;
11098;SDS011;12223;42.650;23.364;2023-01-16T11:49:03;35.70;;;24.67;;
11098;SDS011;12223;42.650;23.364;2023-01-16T11:51:40;33.33;;;24.23;;
11098;SDS011;12223;42.650;23.364;2023-01-16T11:54:14;32.80;;;24.63;;
11098;SDS011;12223;42.650;23.364;2023-01-16T11:56:47;41.37;;;34.30;;
11098;SDS011;12223;42.650;23.364;2023-01-16T11:59:37;31.00;;;22.03;;
11098;SDS011;12223;42.650;23.364;2023-01-16T12:05:14;32.17;;;21.83;;
11098;SDS011;12223;42.650;23.364;2023-01-16T12:08:09;31.60;;;27.33;;
11098;SDS011;12223;42.650;23.364;2023-01-16T12:10:47;38.53;;;34.37;;
11098;SDS011;12223;42.650;23.364;2023-01-16T12:13:25;31.07;;;26.50;;
11098;SDS011;12223;42.650;23.364;2023-01-16T12:16:20;39.20;;;34.33;;
11098;SDS011;12223;42.650;23.364;2023-01-16T12:18:59;38.57;;;27.93;;
11098;SDS011;12223;42.650;23.364;2023-01-16T12:21:38;33.87;;;24.10;;
11098;SDS011;12223;42.650;23.364;2023-01-16T12:27:02;36.07;;;23.83;;
11098;SDS011;12223;42.650;23.364;2023-01-16T12:29:48;29.53;;;24.97;;
11098;SDS011;12223;42.650;23.364;2023-01-16T12:32:34;28.97;;;21.63;;
11098;SDS011;12223;42.650;23.364;2023-01-16T12:35:33;30.33;;;21.83;;
11098;SDS011;12223;42.650;23.364;2023-01-16T12:38:14;39.00;;;35.60;;
11098;SDS011;12223;42.650;23.364;2023-01-16T12:41:02;24.70;;;20.33;;
11098;SDS011;12223;42.650;23.364;2023-01-16T12:44:03;29.97;;;21.27;;
11098;SDS011;12223;42.650;23.364;2023-01-16T12:46:43;22.03;;;19.63;;
11098;SDS011;12223;42.650;23.364;2023-01-16T12:49:22;26.80;;;20.33;;
11098;SDS011;12223;42.650;23.364;2023-01-16T12:52:06;28.40;;;20.03;;
11098;SDS011;12223;42.650;23.364;2023-01-16T12:54:49;28.63;;;20.27;;
11098;SDS011;12223;42.650;23.364;2023-01-16T13:00:47;26.37;;;19.40;;
11098;SDS011;12223;42.650;23.364;2023-01-16T13:03:21;27.20;;;21.33;;
11098;SDS011;12223;42.650;23.364;2023-01-16T13:05:53;31.43;;;21.33;;
11098;SDS011;12223;42.650;23.364;2023-01-16T13:08:25;29.13;;;21.50;;
11098;SDS011;12223;42.650;23.364;2023-01-16T13:10:57;22.80;;;19.67;;
11098;SDS011;12223;42.650;23.364;2023-01-16T13:13:49;21.73;;;17.90;;
11098;SDS011;12223;42.650;23.364;2023-01-16T13:16:20;24.90;;;18.33;;
11098;SDS011;12223;42.650;23.364;2023-01-16T13:21:38;28.17;;;22.47;;
11098;SDS011;12223;42.650;23.364;2023-01-16T13:24:23;23.17;;;18.83;;
11098;SDS011;12223;42.650;23.364;2023-01-16T13:26:56;26.73;;;21.07;;
11098;SDS011;12223;42.650;23.364;2023-01-16T13:29:29;23.37;;;16.47;;
11098;SDS011;12223;42.650;23.364;2023-01-16T13:32:01;22.77;;;19.57;;
11098;SDS011;12223;42.650;23.364;2023-01-16T13:34:32;29.27;;;20.93;;
11098;SDS011;12223;42.650;23.364;2023-01-16T13:40:18;25.33;;;20.83;;
11098;SDS011;12223;42.650;23.364;2023-01-16T13:42:55;24.77;;;22.17;;
11098;SDS011;12223;42.650;23.364;2023-01-16T13:45:46;26.70;;;18.53;;
11098;SDS011;12223;42.650;23.364;2023-01-16T13:48:13;25.47;;;20.33;;
11098;SDS011;12223;42.650;23.364;2023-01-16T13:50:51;22.83;;;20.30;;
11098;SDS011;12223;42.650;23.364;2023-01-16T13:53:24;23.63;;;20.10;;
11098;SDS011;12223;42.650;23.364;2023-01-16T13:56:01;25.20;;;19.03;;
11098;SDS011;12223;42.650;23.364;2023-01-16T13:58:31;27.87;;;25.20;;
11098;SDS011;12223;42.650;23.364;2023-01-16T14:01:02;22.93;;;19.73;;
11098;SDS011;12223;42.650;23.364;2023-01-16T14:03:31;22.50;;;20.17;;
11098;SDS011;12223;42.650;23.364;2023-01-16T14:06:19;29.27;;;26.47;;
11098;SDS011;12223;42.650;23.364;2023-01-16T14:12:00;35.70;;;32.53;;
11098;SDS011;12223;42.650;23.364;2023-01-16T14:14:48;25.80;;;20.70;;
11098;SDS011;12223;42.650;23.364;2023-01-16T14:20:43;26.40;;;23.90;;
11098;SDS011;12223;42.650;23.364;2023-01-16T14:23:17;29.37;;;26.17;;
11098;SDS011;12223;42.650;23.364;2023-01-16T14:26:05;25.73;;;23.00;;
11098;SDS011;12223;42.650;23.364;2023-01-16T14:28:35;26.30;;;23.83;;
11098;SDS011;12223;42.650;23.364;2023-01-16T14:31:05;51.37;;;47.80;;
11098;SDS011;12223;42.650;23.364;2023-01-16T14:33:47;63.30;;;58.80;;
11098;SDS011;12223;42.650;23.364;2023-01-16T14:36:14;121.47;;;115.37;;
11098;SDS011;12223;42.650;23.364;2023-01-16T14:38:46;63.00;;;58.87;;
11098;SDS011;12223;42.650;23.364;2023-01-16T14:41:14;30.23;;;27.57;;
11098;SDS011;12223;42.650;23.364;2023-01-16T14:44:16;144.57;;;137.57;;
11098;SDS011;12223;42.650;23.364;2023-01-16T14:47:07;34.63;;;32.00;;
11098;SDS011;12223;42.650;23.364;2023-01-16T14:49:58;22.60;;;20.27;;
11098;SDS011;12223;42.650;23.364;2023-01-16T14:52:49;46.43;;;42.60;;
11098;SDS011;12223;42.650;23.364;2023-01-16T14:55:45;22.10;;;19.23;;
11098;SDS011;12223;42.650;23.364;2023-01-16T14:58:16;27.07;;;21.83;;
11098;SDS011;12223;42.650;23.364;2023-01-16T15:00:53;23.27;;;18.03;;
11098;SDS011;12223;42.650;23.364;2023-01-16T15:06:40;31.63;;;24.63;;
11098;SDS011;12223;42.650;23.364;2023-01-16T15:09:13;25.70;;;19.87;;
11098;SDS011;12223;42.650;23.364;2023-01-16T15:11:44;24.23;;;18.40;;
11098;SDS011;12223;42.650;23.364;2023-01-16T15:14:17;25.53;;;18.40;;
11098;SDS011;12223;42.650;23.364;2023-01-16T15:17:04;25.90;;;20.60;;
11098;SDS011;12223;42.650;23.364;2023-01-16T15:19:57;25.00;;;20.03;;
11098;SDS011;12223;42.650;23.364;2023-01-16T15:22:44;22.93;;;17.50;;
11098;SDS011;12223;42.650;23.364;2023-01-16T15:25:22;26.27;;;19.50;;
11098;SDS011;12223;42.650;23.364;2023-01-16T15:28:06;24.30;;;19.97;;
11098;SDS011;12223;42.650;23.364;2023-01-16T15:30:41;20.77;;;17.57;;
11098;SDS011;12223;42.650;23.364;2023-01-16T15:33:23;26.03;;;18.20;;